sensor_id;sensor_type;location;lat;lon;timestamp;pressure;altitude;pressure_sealevel;temperature;humidity
39363;BME280;25088;43.238;23.110;2023-04-09T00:00:07;96821.09;;;6.41;100.00
39363;BME280;25088;43.238;23.110;2023-04-09T00:02:34;96812.13;;;6.22;100.00
39363;BME280;25088;43.238;23.110;2023-04-09T00:05:00;96830.88;;;6.24;100.00
39363;BME280;25088;43.238;23.110;2023-04-09T00:07:26;96833.81;;;6.22;100.00
39363;BME280;25088;43.238;23.110;2023-04-09T00:09:52;96838.41;;;6.22;100.00
39363;BME280;25088;43.238;23.110;2023-04-09T00:12:17;96835.69;;;6.22;100.00
39363;BME280;25088;43.238;23.110;2023-04-09T00:14:43;96835.53;;;6.17;100.00
39363;BME280;25088;43.238;23.110;2023-04-09T00:17:08;96827.66;;;6.09;100.00
39363;BME280;25088;43.238;23.110;2023-04-09T00:19:33;96833.13;;;6.02;100.00
39363;BME280;25088;43.238;23.110;2023-04-09T00:21:59;96845.63;;;6.03;100.00
39363;BME280;25088;43.238;23.110;2023-04-09T00:24:25;96851.06;;;5.96;100.00
39363;BME280;25088;43.238;23.110;2023-04-09T00:26:50;96847.56;;;5.89;100.00
39363;BME280;25088;43.238;23.110;2023-04-09T00:29:17;96850.97;;;5.78;100.00
39363;BME280;25088;43.238;23.110;2023-04-09T00:31:43;96848.28;;;5.71;100.00
39363;BME280;25088;43.238;23.110;2023-04-09T00:34:08;96849.97;;;5.66;100.00
39363;BME280;25088;43.238;23.110;2023-04-09T00:36:33;96845.38;;;5.66;100.00
39363;BME280;25088;43.238;23.110;2023-04-09T00:38:59;96847.72;;;5.63;100.00
39363;BME280;25088;43.238;23.110;2023-04-09T00:41:24;96849.41;;;5.57;100.00
39363;BME280;25088;43.238;23.110;2023-04-09T00:43:50;96851.72;;;5.54;100.00
39363;BME280;25088;43.238;23.110;2023-04-09T00:46:16;96858.78;;;5.55;100.00
39363;BME280;25088;43.238;23.110;2023-04-09T00:48:42;96860.06;;;5.52;100.00
39363;BME280;25088;43.238;23.110;2023-04-09T00:51:07;96851.31;;;5.50;100.00
39363;BME280;25088;43.238;23.110;2023-04-09T00:53:33;96849.88;;;5.48;100.00
39363;BME280;25088;43.238;23.110;2023-04-09T00:56:00;96859.81;;;5.60;100.00
39363;BME280;25088;43.238;23.110;2023-04-09T00:58:26;96857.31;;;5.59;100.00
39363;BME280;25088;43.238;23.110;2023-04-09T01:00:51;96863.16;;;5.56;100.00
39363;BME280;25088;43.238;23.110;2023-04-09T01:03:17;96855.47;;;5.53;100.00
39363;BME280;25088;43.238;23.110;2023-04-09T01:08:31;96868.00;;;5.47;100.00
39363;BME280;25088;43.238;23.110;2023-04-09T01:13:39;96865.50;;;5.52;100.00
39363;BME280;25088;43.238;23.110;2023-04-09T01:16:09;96859.25;;;5.45;100.00
39363;BME280;25088;43.238;23.110;2023-04-09T01:18:43;96865.66;;;5.57;100.00
39363;BME280;25088;43.238;23.110;2023-04-09T01:21:13;96865.84;;;5.62;100.00
39363;BME280;25088;43.238;23.110;2023-04-09T01:28:56;96860.63;;;5.67;100.00
39363;BME280;25088;43.238;23.110;2023-04-09T01:31:34;96853.97;;;5.57;100.00
39363;BME280;25088;43.238;23.110;2023-04-09T01:34:01;96867.34;;;5.52;100.00
39363;BME280;25088;43.238;23.110;2023-04-09T01:36:29;96870.72;;;5.47;100.00
39363;BME280;25088;43.238;23.110;2023-04-09T01:38:56;96878.38;;;5.50;100.00
39363;BME280;25088;43.238;23.110;2023-04-09T01:41:23;96875.50;;;5.45;100.00
39363;BME280;25088;43.238;23.110;2023-04-09T01:43:50;96880.69;;;5.53;100.00
39363;BME280;25088;43.238;23.110;2023-04-09T01:46:17;96865.22;;;5.60;100.00
39363;BME280;25088;43.238;23.110;2023-04-09T01:48:44;96868.75;;;5.67;100.00
39363;BME280;25088;43.238;23.110;2023-04-09T01:51:11;96867.03;;;5.73;100.00
39363;BME280;25088;43.238;23.110;2023-04-09T01:53:38;96854.38;;;5.67;100.00
39363;BME280;25088;43.238;23.110;2023-04-09T01:56:05;96867.41;;;5.77;100.00
39363;BME280;25088;43.238;23.110;2023-04-09T01:58:31;96868.22;;;5.84;100.00
39363;BME280;25088;43.238;23.110;2023-04-09T02:01:09;96871.53;;;5.92;100.00
39363;BME280;25088;43.238;23.110;2023-04-09T02:03:59;96874.63;;;5.96;100.00
39363;BME280;25088;43.238;23.110;2023-04-09T02:06:37;96867.13;;;5.98;100.00
39363;BME280;25088;43.238;23.110;2023-04-09T02:09:06;96865.84;;;6.01;100.00
39363;BME280;25088;43.238;23.110;2023-04-09T02:11:33;96860.22;;;6.02;100.00
39363;BME280;25088;43.238;23.110;2023-04-09T02:14:02;96864.13;;;6.06;100.00
39363;BME280;25088;43.238;23.110;2023-04-09T02:16:30;96844.41;;;5.99;100.00
39363;BME280;25088;43.238;23.110;2023-04-09T02:18:57;96869.72;;;6.11;100.00
39363;BME280;25088;43.238;23.110;2023-04-09T02:21:26;96865.53;;;6.15;100.00
39363;BME280;25088;43.238;23.110;2023-04-09T02:23:53;96872.63;;;6.16;100.00
39363;BME280;25088;43.238;23.110;2023-04-09T02:26:18;96868.66;;;6.19;100.00
39363;BME280;25088;43.238;23.110;2023-04-09T02:28:44;96856.47;;;6.03;100.00
39363;BME280;25088;43.238;23.110;2023-04-09T02:31:09;96862.72;;;6.04;100.00
39363;BME280;25088;43.238;23.110;2023-04-09T02:33:35;96865.84;;;6.01;100.00
39363;BME280;25088;43.238;23.110;2023-04-09T02:36:01;96867.91;;;6.05;100.00
39363;BME280;25088;43.238;23.110;2023-04-09T02:38:26;96862.72;;;6.04;100.00
39363;BME280;25088;43.238;23.110;2023-04-09T02:40:51;96841.09;;;5.90;100.00
39363;BME280;25088;43.238;23.110;2023-04-09T02:43:17;96865.84;;;6.01;100.00
39363;BME280;25088;43.238;23.110;2023-04-09T02:45:42;96868.63;;;5.94;100.00
39363;BME280;25088;43.238;23.110;2023-04-09T02:48:08;96871.75;;;5.84;100.00
39363;BME280;25088;43.238;23.110;2023-04-09T02:50:33;96871.53;;;5.86;100.00
39363;BME280;25088;43.238;23.110;2023-04-09T02:52:59;96859.44;;;5.88;100.00
39363;BME280;25088;43.238;23.110;2023-04-09T02:55:24;96860.47;;;5.94;100.00
39363;BME280;25088;43.238;23.110;2023-04-09T02:57:50;96847.94;;;6.00;100.00
39363;BME280;25088;43.238;23.110;2023-04-09T03:00:15;96854.53;;;6.10;100.00
39363;BME280;25088;43.238;23.110;2023-04-09T03:02:41;96850.09;;;6.16;100.00
39363;BME280;25088;43.238;23.110;2023-04-09T03:05:06;96836.59;;;6.09;100.00
39363;BME280;25088;43.238;23.110;2023-04-09T03:07:32;96857.03;;;6.12;100.00
39363;BME280;25088;43.238;23.110;2023-04-09T03:09:57;96859.56;;;6.07;100.00
39363;BME280;25088;43.238;23.110;2023-04-09T03:12:23;96846.34;;;5.92;100.00
39363;BME280;25088;43.238;23.110;2023-04-09T03:14:48;96831.28;;;5.89;100.00
39363;BME280;25088;43.238;23.110;2023-04-09T03:17:14;96844.78;;;6.03;100.00
39363;BME280;25088;43.238;23.110;2023-04-09T03:19:39;96852.88;;;6.09;100.00
39363;BME280;25088;43.238;23.110;2023-04-09T03:22:05;96846.72;;;6.20;100.00
39363;BME280;25088;43.238;23.110;2023-04-09T03:24:31;96839.00;;;6.24;100.00
39363;BME280;25088;43.238;23.110;2023-04-09T03:26:57;96844.34;;;6.31;100.00
39363;BME280;25088;43.238;23.110;2023-04-09T03:29:22;96822.47;;;6.32;100.00
39363;BME280;25088;43.238;23.110;2023-04-09T03:31:48;96837.19;;;6.43;100.00
39363;BME280;25088;43.238;23.110;2023-04-09T03:34:13;96847.22;;;6.61;100.00
39363;BME280;25088;43.238;23.110;2023-04-09T03:36:39;96850.09;;;6.66;100.00
39363;BME280;25088;43.238;23.110;2023-04-09T03:39:05;96847.53;;;6.71;100.00
39363;BME280;25088;43.238;23.110;2023-04-09T03:41:30;96851.03;;;6.78;100.00
39363;BME280;25088;43.238;23.110;2023-04-09T03:43:56;96839.81;;;6.74;100.00
39363;BME280;25088;43.238;23.110;2023-04-09T03:46:21;96848.06;;;6.86;100.00
39363;BME280;25088;43.238;23.110;2023-04-09T03:48:47;96843.22;;;6.88;100.00
39363;BME280;25088;43.238;23.110;2023-04-09T03:51:14;96854.47;;;6.92;100.00
39363;BME280;25088;43.238;23.110;2023-04-09T03:53:40;96855.50;;;6.91;100.00
39363;BME280;25088;43.238;23.110;2023-04-09T03:56:06;96849.25;;;6.90;100.00
39363;BME280;25088;43.238;23.110;2023-04-09T03:58:32;96852.19;;;6.89;100.00
39363;BME280;25088;43.238;23.110;2023-04-09T04:00:57;96851.13;;;6.90;100.00
39363;BME280;25088;43.238;23.110;2023-04-09T04:03:23;96847.59;;;6.89;100.00
39363;BME280;25088;43.238;23.110;2023-04-09T04:05:48;96850.53;;;6.88;100.00
39363;BME280;25088;43.238;23.110;2023-04-09T04:08:13;96845.34;;;6.86;100.00
39363;BME280;25088;43.238;23.110;2023-04-09T04:10:39;96862.13;;;6.95;100.00
39363;BME280;25088;43.238;23.110;2023-04-09T04:13:05;96862.38;;;6.93;100.00
39363;BME280;25088;43.238;23.110;2023-04-09T04:15:32;96854.97;;;7.00;100.00
39363;BME280;25088;43.238;23.110;2023-04-09T04:17:57;96859.13;;;7.03;100.00
39363;BME280;25088;43.238;23.110;2023-04-09T04:20:23;96859.97;;;7.04;100.00
39363;BME280;25088;43.238;23.110;2023-04-09T04:22:48;96854.00;;;6.95;100.00
39363;BME280;25088;43.238;23.110;2023-04-09T04:25:14;96863.88;;;6.89;100.00
39363;BME280;25088;43.238;23.110;2023-04-09T04:27:42;96816.56;;;6.60;100.00
39363;BME280;25088;43.238;23.110;2023-04-09T04:30:08;96857.63;;;6.89;100.00
39363;BME280;25088;43.238;23.110;2023-04-09T04:32:34;96862.22;;;6.88;100.00
39363;BME280;25088;43.238;23.110;2023-04-09T04:34:59;96846.69;;;6.77;100.00
39363;BME280;25088;43.238;23.110;2023-04-09T04:37:25;96863.13;;;7.00;100.00
39363;BME280;25088;43.238;23.110;2023-04-09T04:39:50;96871.22;;;7.07;100.00
39363;BME280;25088;43.238;23.110;2023-04-09T04:42:16;96866.38;;;7.09;100.00
39363;BME280;25088;43.238;23.110;2023-04-09T04:44:42;96871.97;;;7.14;100.00
39363;BME280;25088;43.238;23.110;2023-04-09T04:47:08;96874.66;;;7.14;100.00
39363;BME280;25088;43.238;23.110;2023-04-09T04:49:33;96873.63;;;7.15;100.00
39363;BME280;25088;43.238;23.110;2023-04-09T04:51:58;96874.78;;;7.26;100.00
39363;BME280;25088;43.238;23.110;2023-04-09T04:54:24;96881.03;;;7.27;100.00
39363;BME280;25088;43.238;23.110;2023-04-09T04:56:49;96883.22;;;7.36;100.00
39363;BME280;25088;43.238;23.110;2023-04-09T04:59:15;96874.06;;;7.31;100.00
39363;BME280;25088;43.238;23.110;2023-04-09T05:01:40;96890.66;;;7.41;100.00
39363;BME280;25088;43.238;23.110;2023-04-09T05:04:06;96886.91;;;7.42;100.00
39363;BME280;25088;43.238;23.110;2023-04-09T05:06:31;96893.91;;;7.49;100.00
39363;BME280;25088;43.238;23.110;2023-04-09T05:08:57;96887.22;;;7.52;100.00
39363;BME280;25088;43.238;23.110;2023-04-09T05:11:29;96892.63;;;7.52;100.00
39363;BME280;25088;43.238;23.110;2023-04-09T05:13:54;96888.41;;;7.56;100.00
39363;BME280;25088;43.238;23.110;2023-04-09T05:16:20;96896.34;;;7.58;100.00
39363;BME280;25088;43.238;23.110;2023-04-09T05:18:46;96891.13;;;7.56;100.00
39363;BME280;25088;43.238;23.110;2023-04-09T05:21:12;96885.63;;;7.44;100.00
39363;BME280;25088;43.238;23.110;2023-04-09T05:23:37;96889.47;;;7.37;100.00
39363;BME280;25088;43.238;23.110;2023-04-09T05:26:02;96896.66;;;7.31;100.00
39363;BME280;25088;43.238;23.110;2023-04-09T05:28:28;96885.56;;;7.33;100.00
39363;BME280;25088;43.238;23.110;2023-04-09T05:30:53;96890.16;;;7.32;100.00
39363;BME280;25088;43.238;23.110;2023-04-09T05:33:19;96883.66;;;7.33;100.00
39363;BME280;25088;43.238;23.110;2023-04-09T05:35:45;96889.19;;;7.27;100.00
39363;BME280;25088;43.238;23.110;2023-04-09T05:38:10;96888.72;;;7.30;100.00
39363;BME280;25088;43.238;23.110;2023-04-09T05:40:37;96886.91;;;7.23;100.00
39363;BME280;25088;43.238;23.110;2023-04-09T05:43:03;96883.75;;;7.27;100.00
39363;BME280;25088;43.238;23.110;2023-04-09T05:45:28;96887.66;;;7.31;100.00
39363;BME280;25088;43.238;23.110;2023-04-09T05:47:54;96888.03;;;7.34;100.00
39363;BME280;25088;43.238;23.110;2023-04-09T05:50:19;96890.31;;;7.37;100.00
39363;BME280;25088;43.238;23.110;2023-04-09T05:52:45;96886.16;;;7.35;100.00
39363;BME280;25088;43.238;23.110;2023-04-09T05:55:10;96864.13;;;7.24;100.00
39363;BME280;25088;43.238;23.110;2023-04-09T05:57:36;96865.91;;;7.31;100.00
39363;BME280;25088;43.238;23.110;2023-04-09T06:00:02;96881.34;;;7.37;100.00
39363;BME280;25088;43.238;23.110;2023-04-09T06:02:28;96881.69;;;7.40;100.00
39363;BME280;25088;43.238;23.110;2023-04-09T06:04:53;96892.78;;;7.57;100.00
39363;BME280;25088;43.238;23.110;2023-04-09T06:07:19;96886.19;;;7.65;100.00
39363;BME280;25088;43.238;23.110;2023-04-09T06:09:45;96890.94;;;7.69;100.00
39363;BME280;25088;43.238;23.110;2023-04-09T06:12:13;96883.19;;;7.73;100.00
39363;BME280;25088;43.238;23.110;2023-04-09T06:14:40;96897.44;;;7.87;100.00
39363;BME280;25088;43.238;23.110;2023-04-09T06:17:05;96898.16;;;7.94;100.00
39363;BME280;25088;43.238;23.110;2023-04-09T06:19:30;96892.13;;;7.92;100.00
39363;BME280;25088;43.238;23.110;2023-04-09T06:21:56;96895.00;;;7.97;100.00
39363;BME280;25088;43.238;23.110;2023-04-09T06:24:21;96900.56;;;8.02;100.00
39363;BME280;25088;43.238;23.110;2023-04-09T06:26:47;96902.91;;;7.98;100.00
39363;BME280;25088;43.238;23.110;2023-04-09T06:29:13;96894.88;;;8.03;100.00
39363;BME280;25088;43.238;23.110;2023-04-09T06:31:38;96903.94;;;8.16;100.00
39363;BME280;25088;43.238;23.110;2023-04-09T06:34:03;96906.09;;;8.25;100.00
39363;BME280;25088;43.238;23.110;2023-04-09T06:36:29;96888.09;;;8.24;100.00
39363;BME280;25088;43.238;23.110;2023-04-09T06:38:55;96909.84;;;8.54;100.00
39363;BME280;25088;43.238;23.110;2023-04-09T06:41:24;96911.91;;;8.71;100.00
39363;BME280;25088;43.238;23.110;2023-04-09T06:43:51;96888.47;;;8.82;100.00
39363;BME280;25088;43.238;23.110;2023-04-09T06:46:16;96914.75;;;8.88;100.00
39363;BME280;25088;43.238;23.110;2023-04-09T06:48:44;96914.50;;;8.89;100.00
39363;BME280;25088;43.238;23.110;2023-04-09T06:51:11;96904.59;;;9.06;98.79
39363;BME280;25088;43.238;23.110;2023-04-09T06:53:37;96905.06;;;9.27;97.76
39363;BME280;25088;43.238;23.110;2023-04-09T06:56:03;96906.25;;;9.31;99.00
39363;BME280;25088;43.238;23.110;2023-04-09T06:58:29;96908.81;;;9.49;96.38
39363;BME280;25088;43.238;23.110;2023-04-09T07:00:55;96917.22;;;9.48;95.08
39363;BME280;25088;43.238;23.110;2023-04-09T07:03:20;96910.97;;;9.47;96.68
39363;BME280;25088;43.238;23.110;2023-04-09T07:05:46;96911.41;;;9.44;95.26
39363;BME280;25088;43.238;23.110;2023-04-09T07:08:11;96909.91;;;9.37;94.33
39363;BME280;25088;43.238;23.110;2023-04-09T07:10:37;96904.09;;;9.45;92.50
39363;BME280;25088;43.238;23.110;2023-04-09T07:13:02;96912.75;;;9.42;95.30
39363;BME280;25088;43.238;23.110;2023-04-09T07:15:28;96908.19;;;9.59;92.86
39363;BME280;25088;43.238;23.110;2023-04-09T07:17:53;96910.09;;;9.70;92.89
39363;BME280;25088;43.238;23.110;2023-04-09T07:20:19;96912.72;;;9.65;93.71
39363;BME280;25088;43.238;23.110;2023-04-09T07:22:44;96909.31;;;9.87;90.37
39363;BME280;25088;43.238;23.110;2023-04-09T07:25:10;96893.41;;;9.95;91.00
39363;BME280;25088;43.238;23.110;2023-04-09T07:27:35;96908.66;;;10.08;88.41
39363;BME280;25088;43.238;23.110;2023-04-09T07:30:01;96907.44;;;10.16;90.08
39363;BME280;25088;43.238;23.110;2023-04-09T07:32:27;96900.19;;;10.21;88.24
39363;BME280;25088;43.238;23.110;2023-04-09T07:34:53;96910.84;;;10.34;87.79
39363;BME280;25088;43.238;23.110;2023-04-09T07:37:19;96902.25;;;10.43;85.61
39363;BME280;25088;43.238;23.110;2023-04-09T07:39:46;96900.75;;;10.35;86.23
39363;BME280;25088;43.238;23.110;2023-04-09T07:42:11;96888.56;;;10.14;86.60
39363;BME280;25088;43.238;23.110;2023-04-09T07:44:37;96906.53;;;10.39;84.42
39363;BME280;25088;43.238;23.110;2023-04-09T07:47:05;96890.09;;;10.50;82.81
39363;BME280;25088;43.238;23.110;2023-04-09T07:49:31;96909.56;;;10.71;81.88
39363;BME280;25088;43.238;23.110;2023-04-09T07:51:58;96909.22;;;10.84;80.85
39363;BME280;25088;43.238;23.110;2023-04-09T07:54:23;96915.78;;;11.00;80.67
39363;BME280;25088;43.238;23.110;2023-04-09T07:56:49;96917.28;;;10.91;80.31
39363;BME280;25088;43.238;23.110;2023-04-09T07:59:15;96915.88;;;11.05;80.75
39363;BME280;25088;43.238;23.110;2023-04-09T08:01:41;96920.00;;;11.07;79.72
39363;BME280;25088;43.238;23.110;2023-04-09T08:04:07;96905.09;;;11.15;80.00
39363;BME280;25088;43.238;23.110;2023-04-09T08:06:32;96918.22;;;11.35;79.16
39363;BME280;25088;43.238;23.110;2023-04-09T08:08:57;96912.34;;;11.26;79.11
39363;BME280;25088;43.238;23.110;2023-04-09T08:11:23;96917.19;;;11.19;81.47
39363;BME280;25088;43.238;23.110;2023-04-09T08:13:53;96872.25;;;10.76;82.48
39363;BME280;25088;43.238;23.110;2023-04-09T08:16:19;96931.16;;;10.72;83.73
39363;BME280;25088;43.238;23.110;2023-04-09T08:18:46;96927.59;;;10.72;84.79
39363;BME280;25088;43.238;23.110;2023-04-09T08:21:12;96929.31;;;10.61;84.78
39363;BME280;25088;43.238;23.110;2023-04-09T08:23:37;96933.72;;;10.62;85.21
39363;BME280;25088;43.238;23.110;2023-04-09T08:26:02;96929.84;;;10.75;85.11
39363;BME280;25088;43.238;23.110;2023-04-09T08:28:28;96923.34;;;10.64;85.10
39363;BME280;25088;43.238;23.110;2023-04-09T08:30:54;96934.19;;;10.59;85.94
39363;BME280;25088;43.238;23.110;2023-04-09T08:33:19;96931.19;;;10.44;85.61
39363;BME280;25088;43.238;23.110;2023-04-09T08:35:45;96922.81;;;10.33;87.45
39363;BME280;25088;43.238;23.110;2023-04-09T08:38:10;96939.13;;;10.17;89.21
39363;BME280;25088;43.238;23.110;2023-04-09T08:40:36;96935.16;;;9.96;90.90
39363;BME280;25088;43.238;23.110;2023-04-09T08:43:05;96939.13;;;9.76;92.82
39363;BME280;25088;43.238;23.110;2023-04-09T08:45:31;96943.28;;;9.67;93.79
39363;BME280;25088;43.238;23.110;2023-04-09T08:47:57;96940.69;;;9.49;93.48
39363;BME280;25088;43.238;23.110;2023-04-09T08:50:30;96938.22;;;9.47;96.07
39363;BME280;25088;43.238;23.110;2023-04-09T08:52:57;96948.28;;;9.47;96.76
39363;BME280;25088;43.238;23.110;2023-04-09T08:55:23;96935.38;;;9.42;97.38
39363;BME280;25088;43.238;23.110;2023-04-09T08:57:48;96943.06;;;9.33;97.21
39363;BME280;25088;43.238;23.110;2023-04-09T09:00:14;96944.38;;;9.31;97.48
39363;BME280;25088;43.238;23.110;2023-04-09T09:03:07;96943.69;;;9.36;97.13
39363;BME280;25088;43.238;23.110;2023-04-09T09:05:43;96944.13;;;9.32;96.95
39363;BME280;25088;43.238;23.110;2023-04-09T09:08:29;96913.97;;;9.11;98.66
39363;BME280;25088;43.238;23.110;2023-04-09T09:10:54;96944.13;;;9.32;97.48
39363;BME280;25088;43.238;23.110;2023-04-09T09:13:24;96949.00;;;9.30;97.26
39363;BME280;25088;43.238;23.110;2023-04-09T09:15:52;96944.63;;;9.18;99.59
39363;BME280;25088;43.238;23.110;2023-04-09T09:18:38;96939.06;;;9.13;99.50
39363;BME280;25088;43.238;23.110;2023-04-09T09:21:16;96953.38;;;9.20;100.00
39363;BME280;25088;43.238;23.110;2023-04-09T09:23:43;96940.00;;;9.18;99.78
39363;BME280;25088;43.238;23.110;2023-04-09T09:26:16;96947.31;;;9.29;100.00
39363;BME280;25088;43.238;23.110;2023-04-09T09:28:46;96943.53;;;9.19;99.81
39363;BME280;25088;43.238;23.110;2023-04-09T09:31:13;96945.69;;;9.17;99.65
39363;BME280;25088;43.238;23.110;2023-04-09T09:33:39;96944.88;;;9.16;100.00
39363;BME280;25088;43.238;23.110;2023-04-09T09:36:05;96939.88;;;9.13;100.00
39363;BME280;25088;43.238;23.110;2023-04-09T09:38:32;96941.88;;;9.29;100.00
39363;BME280;25088;43.238;23.110;2023-04-09T09:40:57;96929.81;;;9.14;100.00
39363;BME280;25088;43.238;23.110;2023-04-09T09:43:23;96944.03;;;9.16;100.00
39363;BME280;25088;43.238;23.110;2023-04-09T09:45:49;96934.53;;;9.18;100.00
39363;BME280;25088;43.238;23.110;2023-04-09T09:48:15;96948.28;;;9.23;100.00
39363;BME280;25088;43.238;23.110;2023-04-09T09:50:41;96949.00;;;9.19;100.00
39363;BME280;25088;43.238;23.110;2023-04-09T09:53:08;96938.47;;;9.22;100.00
39363;BME280;25088;43.238;23.110;2023-04-09T09:55:39;96936.56;;;9.23;100.00
39363;BME280;25088;43.238;23.110;2023-04-09T09:58:15;96942.63;;;9.25;100.00
39363;BME280;25088;43.238;23.110;2023-04-09T10:00:43;96937.66;;;9.10;100.00
39363;BME280;25088;43.238;23.110;2023-04-09T10:03:16;96938.81;;;9.14;100.00
39363;BME280;25088;43.238;23.110;2023-04-09T10:05:43;96937.03;;;9.20;100.00
39363;BME280;25088;43.238;23.110;2023-04-09T10:08:10;96921.50;;;9.09;100.00
39363;BME280;25088;43.238;23.110;2023-04-09T10:10:38;96938.81;;;9.26;100.00
39363;BME280;25088;43.238;23.110;2023-04-09T10:13:13;96928.03;;;9.19;100.00
39363;BME280;25088;43.238;23.110;2023-04-09T10:15:41;96942.84;;;9.23;99.63
39363;BME280;25088;43.238;23.110;2023-04-09T10:18:08;96919.03;;;9.19;100.00
39363;BME280;25088;43.238;23.110;2023-04-09T10:20:48;96940.56;;;9.44;100.00
39363;BME280;25088;43.238;23.110;2023-04-09T10:23:23;96927.16;;;9.54;99.54
39363;BME280;25088;43.238;23.110;2023-04-09T10:25:52;96942.09;;;9.40;99.73
39363;BME280;25088;43.238;23.110;2023-04-09T10:28:18;96930.75;;;9.43;98.37
39363;BME280;25088;43.238;23.110;2023-04-09T10:30:43;96929.91;;;9.42;99.06
39363;BME280;25088;43.238;23.110;2023-04-09T10:33:14;96942.84;;;9.47;98.87
39363;BME280;25088;43.238;23.110;2023-04-09T10:35:40;96935.84;;;9.39;98.90
39363;BME280;25088;43.238;23.110;2023-04-09T10:38:07;96934.78;;;9.40;98.97
39363;BME280;25088;43.238;23.110;2023-04-09T10:40:33;96939.03;;;9.24;99.60
39363;BME280;25088;43.238;23.110;2023-04-09T10:42:59;96931.25;;;9.16;100.00
39363;BME280;25088;43.238;23.110;2023-04-09T10:45:38;96925.78;;;9.16;100.00
39363;BME280;25088;43.238;23.110;2023-04-09T10:48:03;96931.34;;;9.33;100.00
39363;BME280;25088;43.238;23.110;2023-04-09T10:50:31;96926.16;;;9.31;100.00
39363;BME280;25088;43.238;23.110;2023-04-09T10:52:57;96933.25;;;9.32;100.00
39363;BME280;25088;43.238;23.110;2023-04-09T10:58:09;96910.16;;;9.23;100.00
39363;BME280;25088;43.238;23.110;2023-04-09T11:00:39;96929.91;;;9.19;100.00
39363;BME280;25088;43.238;23.110;2023-04-09T11:05:35;96924.84;;;9.22;98.01
39363;BME280;25088;43.238;23.110;2023-04-09T11:08:07;96928.63;;;9.33;97.62
39363;BME280;25088;43.238;23.110;2023-04-09T11:10:43;96926.72;;;9.33;97.03
39363;BME280;25088;43.238;23.110;2023-04-09T11:13:16;96922.22;;;9.39;96.98
39363;BME280;25088;43.238;23.110;2023-04-09T11:15:43;96905.75;;;9.46;95.67
39363;BME280;25088;43.238;23.110;2023-04-09T11:18:22;96924.91;;;9.63;95.61
39363;BME280;25088;43.238;23.110;2023-04-09T11:20:48;96918.06;;;9.60;96.38
39363;BME280;25088;43.238;23.110;2023-04-09T11:23:15;96925.75;;;9.63;94.42
39363;BME280;25088;43.238;23.110;2023-04-09T11:25:41;96929.03;;;9.77;93.36
39363;BME280;25088;43.238;23.110;2023-04-09T11:28:07;96930.94;;;9.76;94.34
39363;BME280;25088;43.238;23.110;2023-04-09T11:30:34;96929.00;;;9.89;94.59
39363;BME280;25088;43.238;23.110;2023-04-09T11:33:00;96923.53;;;9.89;93.21
39363;BME280;25088;43.238;23.110;2023-04-09T11:35:26;96924.63;;;9.88;93.78
39363;BME280;25088;43.238;23.110;2023-04-09T11:37:51;96903.59;;;10.00;93.16
39363;BME280;25088;43.238;23.110;2023-04-09T11:40:22;96910.75;;;10.18;94.05
39363;BME280;25088;43.238;23.110;2023-04-09T11:42:50;96900.34;;;10.15;92.76
39363;BME280;25088;43.238;23.110;2023-04-09T11:45:18;96900.88;;;10.00;91.38
39363;BME280;25088;43.238;23.110;2023-04-09T11:47:44;96905.38;;;10.23;90.33
39363;BME280;25088;43.238;23.110;2023-04-09T11:50:12;96901.72;;;10.29;88.99
39363;BME280;25088;43.238;23.110;2023-04-09T11:52:38;96898.66;;;10.25;87.28
39363;BME280;25088;43.238;23.110;2023-04-09T11:55:05;96888.00;;;10.12;88.49
39363;BME280;25088;43.238;23.110;2023-04-09T11:57:42;96900.34;;;10.15;87.95
39363;BME280;25088;43.238;23.110;2023-04-09T12:00:15;96896.44;;;10.10;88.51
39363;BME280;25088;43.238;23.110;2023-04-09T12:02:43;96892.63;;;10.12;88.08
39363;BME280;25088;43.238;23.110;2023-04-09T12:05:12;96893.38;;;10.07;88.02
39363;BME280;25088;43.238;23.110;2023-04-09T12:07:44;96896.19;;;10.12;88.64
39363;BME280;25088;43.238;23.110;2023-04-09T12:10:10;96899.59;;;9.91;89.75
39363;BME280;25088;43.238;23.110;2023-04-09T12:12:40;96900.69;;;9.90;90.18
39363;BME280;25088;43.238;23.110;2023-04-09T12:15:10;96879.09;;;9.88;90.15
39363;BME280;25088;43.238;23.110;2023-04-09T12:17:36;96893.16;;;9.97;91.52
39363;BME280;25088;43.238;23.110;2023-04-09T12:20:01;96889.38;;;9.98;90.66
39363;BME280;25088;43.238;23.110;2023-04-09T12:22:27;96891.00;;;9.99;90.56
39363;BME280;25088;43.238;23.110;2023-04-09T12:24:52;96883.81;;;9.93;92.71
39363;BME280;25088;43.238;23.110;2023-04-09T12:27:19;96895.34;;;9.83;91.81
39363;BME280;25088;43.238;23.110;2023-04-09T12:29:45;96896.06;;;9.78;91.05
39363;BME280;25088;43.238;23.110;2023-04-09T12:32:10;96888.97;;;9.77;92.16
39363;BME280;25088;43.238;23.110;2023-04-09T12:34:36;96890.41;;;9.68;92.44
39363;BME280;25088;43.238;23.110;2023-04-09T12:37:01;96887.81;;;9.62;95.06
39363;BME280;25088;43.238;23.110;2023-04-09T12:39:27;96889.00;;;9.54;95.18
39363;BME280;25088;43.238;23.110;2023-04-09T12:41:52;96889.50;;;9.51;95.28
39363;BME280;25088;43.238;23.110;2023-04-09T12:44:18;96886.19;;;9.49;95.74
39363;BME280;25088;43.238;23.110;2023-04-09T12:46:44;96878.28;;;9.36;97.31
39363;BME280;25088;43.238;23.110;2023-04-09T12:49:09;96881.00;;;9.36;98.72
39363;BME280;25088;43.238;23.110;2023-04-09T12:51:35;96882.78;;;9.30;99.71
39363;BME280;25088;43.238;23.110;2023-04-09T12:54:00;96882.44;;;9.15;100.00
39363;BME280;25088;43.238;23.110;2023-04-09T12:56:28;96864.81;;;9.05;100.00
39363;BME280;25088;43.238;23.110;2023-04-09T12:58:53;96881.84;;;9.13;100.00
39363;BME280;25088;43.238;23.110;2023-04-09T13:01:19;96881.88;;;9.01;100.00
39363;BME280;25088;43.238;23.110;2023-04-09T13:03:44;96875.34;;;9.02;100.00
39363;BME280;25088;43.238;23.110;2023-04-09T13:06:09;96873.09;;;8.99;100.00